sensor_id;sensor_type;location;lat;lon;timestamp;P1;durP1;ratioP1;P2;durP2;ratioP2
29196;SDS011;62796;42.654;23.316;2023-07-28T00:00:56;3.40;;;2.70;;
29196;SDS011;62796;42.654;23.316;2023-07-28T00:03:21;4.65;;;3.17;;
29196;SDS011;62796;42.654;23.316;2023-07-28T00:05:47;3.85;;;2.67;;
29196;SDS011;62796;42.654;23.316;2023-07-28T00:08:12;4.05;;;3.08;;
29196;SDS011;62796;42.654;23.316;2023-07-28T00:10:41;4.00;;;3.08;;
29196;SDS011;62796;42.654;23.316;2023-07-28T00:13:07;4.07;;;3.40;;
29196;SDS011;62796;42.654;23.316;2023-07-28T00:15:32;5.10;;;3.92;;
29196;SDS011;62796;42.654;23.316;2023-07-28T00:17:58;5.80;;;4.03;;
29196;SDS011;62796;42.654;23.316;2023-07-28T00:20:24;4.65;;;3.70;;
29196;SDS011;62796;42.654;23.316;2023-07-28T00:22:50;5.85;;;4.07;;
29196;SDS011;62796;42.654;23.316;2023-07-28T00:25:16;4.97;;;3.90;;
29196;SDS011;62796;42.654;23.316;2023-07-28T00:27:41;5.88;;;4.00;;
29196;SDS011;62796;42.654;23.316;2023-07-28T00:30:07;5.22;;;3.90;;
29196;SDS011;62796;42.654;23.316;2023-07-28T00:32:32;5.97;;;4.63;;
29196;SDS011;62796;42.654;23.316;2023-07-28T00:34:58;4.80;;;4.22;;
29196;SDS011;62796;42.654;23.316;2023-07-28T00:37:23;6.50;;;4.20;;
29196;SDS011;62796;42.654;23.316;2023-07-28T00:39:48;4.70;;;4.28;;
29196;SDS011;62796;42.654;23.316;2023-07-28T00:42:14;5.15;;;4.35;;
29196;SDS011;62796;42.654;23.316;2023-07-28T00:44:39;4.63;;;4.22;;
29196;SDS011;62796;42.654;23.316;2023-07-28T00:47:05;7.50;;;4.55;;
29196;SDS011;62796;42.654;23.316;2023-07-28T00:49:30;4.50;;;4.10;;
29196;SDS011;62796;42.654;23.316;2023-07-28T00:51:56;4.70;;;4.40;;
29196;SDS011;62796;42.654;23.316;2023-07-28T00:54:22;8.05;;;4.60;;
29196;SDS011;62796;42.654;23.316;2023-07-28T00:56:48;7.60;;;4.95;;
29196;SDS011;62796;42.654;23.316;2023-07-28T00:59:14;5.43;;;4.60;;
29196;SDS011;62796;42.654;23.316;2023-07-28T01:01:40;5.57;;;4.68;;
29196;SDS011;62796;42.654;23.316;2023-07-28T01:04:05;7.50;;;4.40;;
29196;SDS011;62796;42.654;23.316;2023-07-28T01:06:41;6.28;;;4.60;;
29196;SDS011;62796;42.654;23.316;2023-07-28T01:09:18;8.20;;;4.28;;
29196;SDS011;62796;42.654;23.316;2023-07-28T01:14:20;6.32;;;4.05;;
29196;SDS011;62796;42.654;23.316;2023-07-28T01:16:45;8.55;;;4.30;;
29196;SDS011;62796;42.654;23.316;2023-07-28T01:19:10;7.75;;;4.45;;
29196;SDS011;62796;42.654;23.316;2023-07-28T01:21:37;6.78;;;4.53;;
29196;SDS011;62796;42.654;23.316;2023-07-28T01:24:15;6.00;;;4.47;;
29196;SDS011;62796;42.654;23.316;2023-07-28T01:26:52;5.50;;;4.43;;
29196;SDS011;62796;42.654;23.316;2023-07-28T01:29:19;5.47;;;4.40;;
29196;SDS011;62796;42.654;23.316;2023-07-28T01:31:46;4.95;;;4.43;;
29196;SDS011;62796;42.654;23.316;2023-07-28T01:34:12;6.88;;;4.38;;
29196;SDS011;62796;42.654;23.316;2023-07-28T01:36:38;6.78;;;4.65;;
29196;SDS011;62796;42.654;23.316;2023-07-28T01:39:03;10.18;;;5.10;;
29196;SDS011;62796;42.654;23.316;2023-07-28T01:41:29;8.20;;;5.00;;
29196;SDS011;62796;42.654;23.316;2023-07-28T01:43:54;5.78;;;5.22;;
29196;SDS011;62796;42.654;23.316;2023-07-28T01:46:20;5.75;;;4.55;;
29196;SDS011;62796;42.654;23.316;2023-07-28T01:48:46;5.85;;;4.60;;
29196;SDS011;62796;42.654;23.316;2023-07-28T01:51:11;5.05;;;4.55;;
29196;SDS011;62796;42.654;23.316;2023-07-28T01:53:37;6.05;;;4.63;;
29196;SDS011;62796;42.654;23.316;2023-07-28T01:56:02;8.18;;;4.80;;
29196;SDS011;62796;42.654;23.316;2023-07-28T01:58:28;6.50;;;5.13;;
29196;SDS011;62796;42.654;23.316;2023-07-28T02:00:53;7.90;;;5.53;;
29196;SDS011;62796;42.654;23.316;2023-07-28T02:03:19;7.20;;;5.70;;
29196;SDS011;62796;42.654;23.316;2023-07-28T02:05:44;6.80;;;4.75;;
29196;SDS011;62796;42.654;23.316;2023-07-28T02:08:09;6.20;;;4.82;;
29196;SDS011;62796;42.654;23.316;2023-07-28T02:10:35;5.68;;;4.93;;
29196;SDS011;62796;42.654;23.316;2023-07-28T02:13:00;5.20;;;4.70;;
29196;SDS011;62796;42.654;23.316;2023-07-28T02:15:26;5.38;;;4.63;;
29196;SDS011;62796;42.654;23.316;2023-07-28T02:17:51;6.70;;;4.78;;
29196;SDS011;62796;42.654;23.316;2023-07-28T02:20:16;6.93;;;4.35;;
29196;SDS011;62796;42.654;23.316;2023-07-28T02:22:42;6.90;;;4.63;;
29196;SDS011;62796;42.654;23.316;2023-07-28T02:25:08;8.48;;;4.63;;
29196;SDS011;62796;42.654;23.316;2023-07-28T02:27:34;6.85;;;4.68;;
29196;SDS011;62796;42.654;23.316;2023-07-28T02:30:00;5.38;;;4.45;;
29196;SDS011;62796;42.654;23.316;2023-07-28T02:32:27;5.18;;;4.70;;
29196;SDS011;62796;42.654;23.316;2023-07-28T02:34:53;8.30;;;4.53;;
29196;SDS011;62796;42.654;23.316;2023-07-28T02:37:19;8.02;;;4.90;;
29196;SDS011;62796;42.654;23.316;2023-07-28T02:39:44;6.72;;;5.25;;
29196;SDS011;62796;42.654;23.316;2023-07-28T02:42:11;7.28;;;5.35;;
29196;SDS011;62796;42.654;23.316;2023-07-28T02:44:37;5.82;;;4.22;;
29196;SDS011;62796;42.654;23.316;2023-07-28T02:47:03;6.07;;;4.63;;
29196;SDS011;62796;42.654;23.316;2023-07-28T02:49:28;5.40;;;4.90;;
29196;SDS011;62796;42.654;23.316;2023-07-28T02:51:54;6.05;;;4.57;;
29196;SDS011;62796;42.654;23.316;2023-07-28T02:54:19;7.38;;;4.57;;
29196;SDS011;62796;42.654;23.316;2023-07-28T02:56:46;6.63;;;4.68;;
29196;SDS011;62796;42.654;23.316;2023-07-28T02:59:11;4.90;;;4.30;;
29196;SDS011;62796;42.654;23.316;2023-07-28T03:01:36;5.65;;;4.60;;
29196;SDS011;62796;42.654;23.316;2023-07-28T03:04:02;5.45;;;4.30;;
29196;SDS011;62796;42.654;23.316;2023-07-28T03:06:28;12.93;;;4.88;;
29196;SDS011;62796;42.654;23.316;2023-07-28T03:08:53;7.32;;;4.68;;
29196;SDS011;62796;42.654;23.316;2023-07-28T03:11:19;8.25;;;4.78;;
29196;SDS011;62796;42.654;23.316;2023-07-28T03:13:45;6.55;;;4.78;;
29196;SDS011;62796;42.654;23.316;2023-07-28T03:16:10;5.88;;;4.60;;
29196;SDS011;62796;42.654;23.316;2023-07-28T03:18:36;7.57;;;4.65;;
29196;SDS011;62796;42.654;23.316;2023-07-28T03:21:02;6.60;;;4.72;;
29196;SDS011;62796;42.654;23.316;2023-07-28T03:23:27;9.57;;;4.72;;
29196;SDS011;62796;42.654;23.316;2023-07-28T03:25:53;5.15;;;4.65;;
29196;SDS011;62796;42.654;23.316;2023-07-28T03:28:18;4.63;;;3.83;;
29196;SDS011;62796;42.654;23.316;2023-07-28T03:30:44;5.53;;;4.00;;
29196;SDS011;62796;42.654;23.316;2023-07-28T03:33:09;5.88;;;3.60;;
29196;SDS011;62796;42.654;23.316;2023-07-28T03:35:35;6.07;;;3.55;;
29196;SDS011;62796;42.654;23.316;2023-07-28T03:38:00;4.25;;;3.85;;
29196;SDS011;62796;42.654;23.316;2023-07-28T03:40:26;5.18;;;3.78;;
29196;SDS011;62796;42.654;23.316;2023-07-28T03:42:51;4.95;;;3.35;;
29196;SDS011;62796;42.654;23.316;2023-07-28T03:45:17;5.07;;;3.60;;
29196;SDS011;62796;42.654;23.316;2023-07-28T03:47:43;8.85;;;4.28;;
29196;SDS011;62796;42.654;23.316;2023-07-28T03:50:08;7.50;;;3.95;;
29196;SDS011;62796;42.654;23.316;2023-07-28T03:52:34;11.50;;;9.60;;
29196;SDS011;62796;42.654;23.316;2023-07-28T03:54:59;6.68;;;4.95;;
29196;SDS011;62796;42.654;23.316;2023-07-28T03:57:25;7.32;;;4.53;;
29196;SDS011;62796;42.654;23.316;2023-07-28T03:59:50;8.10;;;4.90;;
29196;SDS011;62796;42.654;23.316;2023-07-28T04:02:16;9.93;;;4.82;;
29196;SDS011;62796;42.654;23.316;2023-07-28T04:04:41;8.45;;;4.95;;
29196;SDS011;62796;42.654;23.316;2023-07-28T04:07:06;9.43;;;5.40;;
29196;SDS011;62796;42.654;23.316;2023-07-28T04:09:32;6.53;;;5.05;;
29196;SDS011;62796;42.654;23.316;2023-07-28T04:11:57;9.48;;;4.97;;
29196;SDS011;62796;42.654;23.316;2023-07-28T04:14:22;8.68;;;5.25;;
29196;SDS011;62796;42.654;23.316;2023-07-28T04:16:48;6.85;;;4.95;;
29196;SDS011;62796;42.654;23.316;2023-07-28T04:19:13;9.07;;;5.30;;
29196;SDS011;62796;42.654;23.316;2023-07-28T04:21:39;5.97;;;4.97;;
29196;SDS011;62796;42.654;23.316;2023-07-28T04:24:06;18.55;;;6.70;;
29196;SDS011;62796;42.654;23.316;2023-07-28T04:26:34;8.15;;;5.18;;
29196;SDS011;62796;42.654;23.316;2023-07-28T04:29:00;8.48;;;5.25;;
29196;SDS011;62796;42.654;23.316;2023-07-28T04:31:26;8.98;;;5.13;;
29196;SDS011;62796;42.654;23.316;2023-07-28T04:33:51;6.28;;;4.45;;
29196;SDS011;62796;42.654;23.316;2023-07-28T04:36:17;9.18;;;4.38;;
29196;SDS011;62796;42.654;23.316;2023-07-28T04:38:42;5.10;;;4.60;;
29196;SDS011;62796;42.654;23.316;2023-07-28T04:41:08;9.82;;;4.45;;
29196;SDS011;62796;42.654;23.316;2023-07-28T04:43:33;5.63;;;4.32;;
29196;SDS011;62796;42.654;23.316;2023-07-28T04:45:58;6.55;;;3.97;;
29196;SDS011;62796;42.654;23.316;2023-07-28T04:48:24;6.93;;;4.60;;
29196;SDS011;62796;42.654;23.316;2023-07-28T04:50:49;9.10;;;4.68;;
29196;SDS011;62796;42.654;23.316;2023-07-28T04:53:14;4.75;;;4.22;;
29196;SDS011;62796;42.654;23.316;2023-07-28T04:55:40;8.85;;;4.78;;
29196;SDS011;62796;42.654;23.316;2023-07-28T04:58:05;7.25;;;4.00;;
29196;SDS011;62796;42.654;23.316;2023-07-28T05:00:31;6.88;;;4.15;;
29196;SDS011;62796;42.654;23.316;2023-07-28T05:02:56;6.72;;;4.70;;
29196;SDS011;62796;42.654;23.316;2023-07-28T05:05:22;8.45;;;4.55;;
29196;SDS011;62796;42.654;23.316;2023-07-28T05:07:47;6.35;;;4.55;;
29196;SDS011;62796;42.654;23.316;2023-07-28T05:10:13;5.40;;;4.10;;
29196;SDS011;62796;42.654;23.316;2023-07-28T05:12:38;10.43;;;4.63;;
29196;SDS011;62796;42.654;23.316;2023-07-28T05:15:04;6.38;;;4.22;;
29196;SDS011;62796;42.654;23.316;2023-07-28T05:17:30;8.95;;;4.78;;
29196;SDS011;62796;42.654;23.316;2023-07-28T05:19:56;9.27;;;4.68;;
29196;SDS011;62796;42.654;23.316;2023-07-28T05:22:21;7.65;;;4.60;;
29196;SDS011;62796;42.654;23.316;2023-07-28T05:24:46;7.85;;;4.38;;
29196;SDS011;62796;42.654;23.316;2023-07-28T05:27:12;10.13;;;4.60;;
29196;SDS011;62796;42.654;23.316;2023-07-28T05:29:37;7.10;;;4.45;;
29196;SDS011;62796;42.654;23.316;2023-07-28T05:32:03;7.93;;;4.10;;
29196;SDS011;62796;42.654;23.316;2023-07-28T05:34:29;9.77;;;4.82;;
29196;SDS011;62796;42.654;23.316;2023-07-28T05:36:54;8.50;;;4.75;;
29196;SDS011;62796;42.654;23.316;2023-07-28T05:39:20;7.72;;;4.25;;
29196;SDS011;62796;42.654;23.316;2023-07-28T05:41:45;12.25;;;5.32;;
29196;SDS011;62796;42.654;23.316;2023-07-28T05:44:11;7.90;;;4.45;;
29196;SDS011;62796;42.654;23.316;2023-07-28T05:46:36;10.13;;;5.50;;
29196;SDS011;62796;42.654;23.316;2023-07-28T05:49:02;10.18;;;5.57;;
29196;SDS011;62796;42.654;23.316;2023-07-28T05:51:27;12.43;;;5.65;;
29196;SDS011;62796;42.654;23.316;2023-07-28T05:53:52;11.40;;;5.95;;
29196;SDS011;62796;42.654;23.316;2023-07-28T05:56:18;17.70;;;6.43;;
29196;SDS011;62796;42.654;23.316;2023-07-28T05:58:44;14.00;;;6.53;;
29196;SDS011;62796;42.654;23.316;2023-07-28T06:01:11;8.35;;;5.65;;
29196;SDS011;62796;42.654;23.316;2023-07-28T06:03:37;12.82;;;5.38;;
29196;SDS011;62796;42.654;23.316;2023-07-28T06:06:02;9.05;;;5.57;;
29196;SDS011;62796;42.654;23.316;2023-07-28T06:08:28;8.60;;;6.13;;
29196;SDS011;62796;42.654;23.316;2023-07-28T06:10:53;11.07;;;7.30;;
29196;SDS011;62796;42.654;23.316;2023-07-28T06:13:18;11.57;;;6.70;;
29196;SDS011;62796;42.654;23.316;2023-07-28T06:15:44;11.05;;;7.10;;
29196;SDS011;62796;42.654;23.316;2023-07-28T06:18:09;11.75;;;6.97;;
29196;SDS011;62796;42.654;23.316;2023-07-28T06:20:35;9.27;;;5.43;;
29196;SDS011;62796;42.654;23.316;2023-07-28T06:23:00;7.65;;;5.38;;
29196;SDS011;62796;42.654;23.316;2023-07-28T06:25:26;7.38;;;5.40;;
29196;SDS011;62796;42.654;23.316;2023-07-28T06:27:52;9.52;;;5.80;;
29196;SDS011;62796;42.654;23.316;2023-07-28T06:30:17;14.48;;;6.78;;
29196;SDS011;62796;42.654;23.316;2023-07-28T06:32:43;7.97;;;5.70;;
29196;SDS011;62796;42.654;23.316;2023-07-28T06:35:08;6.30;;;4.38;;
29196;SDS011;62796;42.654;23.316;2023-07-28T06:37:34;5.35;;;4.03;;
29196;SDS011;62796;42.654;23.316;2023-07-28T06:40:02;6.53;;;4.65;;
29196;SDS011;62796;42.654;23.316;2023-07-28T06:42:30;9.80;;;4.70;;
29196;SDS011;62796;42.654;23.316;2023-07-28T06:44:56;7.88;;;3.88;;
29196;SDS011;62796;42.654;23.316;2023-07-28T06:47:21;6.35;;;3.40;;
29196;SDS011;62796;42.654;23.316;2023-07-28T06:49:47;4.43;;;3.78;;
29196;SDS011;62796;42.654;23.316;2023-07-28T06:52:12;7.68;;;4.10;;
29196;SDS011;62796;42.654;23.316;2023-07-28T06:54:38;4.53;;;3.90;;
29196;SDS011;62796;42.654;23.316;2023-07-28T06:57:04;10.00;;;3.97;;
29196;SDS011;62796;42.654;23.316;2023-07-28T06:59:31;9.05;;;4.25;;
29196;SDS011;62796;42.654;23.316;2023-07-28T07:01:57;8.38;;;4.65;;
29196;SDS011;62796;42.654;23.316;2023-07-28T07:04:22;7.45;;;4.82;;
29196;SDS011;62796;42.654;23.316;2023-07-28T07:06:47;10.15;;;4.90;;
29196;SDS011;62796;42.654;23.316;2023-07-28T07:09:13;6.43;;;5.05;;
29196;SDS011;62796;42.654;23.316;2023-07-28T07:11:39;13.32;;;5.05;;
29196;SDS011;62796;42.654;23.316;2023-07-28T07:14:05;8.02;;;5.00;;
29196;SDS011;62796;42.654;23.316;2023-07-28T07:16:31;6.70;;;4.60;;
29196;SDS011;62796;42.654;23.316;2023-07-28T07:18:57;8.55;;;4.55;;
29196;SDS011;62796;42.654;23.316;2023-07-28T07:21:23;7.95;;;4.25;;
29196;SDS011;62796;42.654;23.316;2023-07-28T07:23:48;8.90;;;3.83;;
29196;SDS011;62796;42.654;23.316;2023-07-28T07:26:13;6.13;;;4.50;;
29196;SDS011;62796;42.654;23.316;2023-07-28T07:28:39;6.20;;;3.75;;
29196;SDS011;62796;42.654;23.316;2023-07-28T07:31:05;9.25;;;4.03;;
29196;SDS011;62796;42.654;23.316;2023-07-28T07:33:37;10.57;;;4.35;;
29196;SDS011;62796;42.654;23.316;2023-07-28T07:36:03;7.25;;;4.10;;
29196;SDS011;62796;42.654;23.316;2023-07-28T07:38:28;6.70;;;3.95;;
29196;SDS011;62796;42.654;23.316;2023-07-28T07:40:53;9.43;;;4.50;;
29196;SDS011;62796;42.654;23.316;2023-07-28T07:43:19;6.95;;;4.18;;
29196;SDS011;62796;42.654;23.316;2023-07-28T07:45:45;7.90;;;4.38;;
29196;SDS011;62796;42.654;23.316;2023-07-28T07:48:12;8.43;;;4.53;;
29196;SDS011;62796;42.654;23.316;2023-07-28T07:50:38;10.98;;;4.72;;
29196;SDS011;62796;42.654;23.316;2023-07-28T07:53:03;9.80;;;4.80;;
29196;SDS011;62796;42.654;23.316;2023-07-28T07:55:29;11.75;;;4.95;;
29196;SDS011;62796;42.654;23.316;2023-07-28T07:57:56;12.00;;;5.40;;
29196;SDS011;62796;42.654;23.316;2023-07-28T08:00:22;7.40;;;5.00;;
29196;SDS011;62796;42.654;23.316;2023-07-28T08:02:48;12.45;;;4.40;;
29196;SDS011;62796;42.654;23.316;2023-07-28T08:05:14;8.07;;;4.60;;
29196;SDS011;62796;42.654;23.316;2023-07-28T08:07:40;12.18;;;4.65;;
29196;SDS011;62796;42.654;23.316;2023-07-28T08:10:05;9.30;;;4.90;;
29196;SDS011;62796;42.654;23.316;2023-07-28T08:12:31;10.00;;;4.18;;
29196;SDS011;62796;42.654;23.316;2023-07-28T08:14:57;10.57;;;4.32;;
29196;SDS011;62796;42.654;23.316;2023-07-28T08:17:23;8.70;;;4.32;;
29196;SDS011;62796;42.654;23.316;2023-07-28T08:19:48;10.05;;;4.50;;
29196;SDS011;62796;42.654;23.316;2023-07-28T08:22:14;7.75;;;4.60;;
29196;SDS011;62796;42.654;23.316;2023-07-28T08:24:39;9.63;;;4.85;;
29196;SDS011;62796;42.654;23.316;2023-07-28T08:27:05;9.88;;;5.97;;
29196;SDS011;62796;42.654;23.316;2023-07-28T08:29:30;10.98;;;4.50;;
29196;SDS011;62796;42.654;23.316;2023-07-28T08:31:56;8.32;;;4.25;;
29196;SDS011;62796;42.654;23.316;2023-07-28T08:34:21;6.45;;;4.32;;
29196;SDS011;62796;42.654;23.316;2023-07-28T08:36:47;9.55;;;4.30;;
29196;SDS011;62796;42.654;23.316;2023-07-28T08:39:12;7.55;;;4.50;;
29196;SDS011;62796;42.654;23.316;2023-07-28T08:41:39;8.77;;;3.90;;
29196;SDS011;62796;42.654;23.316;2023-07-28T08:44:05;8.55;;;4.00;;
29196;SDS011;62796;42.654;23.316;2023-07-28T08:46:32;7.32;;;4.10;;
29196;SDS011;62796;42.654;23.316;2023-07-28T08:48:59;9.10;;;4.72;;
29196;SDS011;62796;42.654;23.316;2023-07-28T08:51:25;7.55;;;4.28;;
29196;SDS011;62796;42.654;23.316;2023-07-28T08:53:50;9.05;;;3.88;;
29196;SDS011;62796;42.654;23.316;2023-07-28T08:56:16;9.93;;;4.30;;
29196;SDS011;62796;42.654;23.316;2023-07-28T08:58:41;7.57;;;3.92;;
29196;SDS011;62796;42.654;23.316;2023-07-28T09:01:07;6.57;;;3.97;;
29196;SDS011;62796;42.654;23.316;2023-07-28T09:03:32;10.05;;;4.15;;
29196;SDS011;62796;42.654;23.316;2023-07-28T09:06:02;7.70;;;3.78;;
29196;SDS011;62796;42.654;23.316;2023-07-28T09:08:31;4.53;;;3.55;;
29196;SDS011;62796;42.654;23.316;2023-07-28T09:10:57;8.35;;;3.60;;
29196;SDS011;62796;42.654;23.316;2023-07-28T09:13:34;6.80;;;3.78;;
29196;SDS011;62796;42.654;23.316;2023-07-28T09:16:01;5.78;;;3.70;;
29196;SDS011;62796;42.654;23.316;2023-07-28T09:18:26;5.90;;;3.75;;
29196;SDS011;62796;42.654;23.316;2023-07-28T09:20:55;6.15;;;4.00;;
29196;SDS011;62796;42.654;23.316;2023-07-28T09:23:27;6.13;;;4.00;;
29196;SDS011;62796;42.654;23.316;2023-07-28T09:26:00;5.28;;;3.47;;
29196;SDS011;62796;42.654;23.316;2023-07-28T09:28:37;7.43;;;3.50;;
29196;SDS011;62796;42.654;23.316;2023-07-28T09:31:04;7.70;;;3.38;;
29196;SDS011;62796;42.654;23.316;2023-07-28T09:33:31;11.73;;;3.95;;
29196;SDS011;62796;42.654;23.316;2023-07-28T09:36:04;5.57;;;3.67;;
29196;SDS011;62796;42.654;23.316;2023-07-28T09:38:32;5.60;;;3.05;;
29196;SDS011;62796;42.654;23.316;2023-07-28T09:41:05;8.05;;;3.60;;
29196;SDS011;62796;42.654;23.316;2023-07-28T09:43:33;5.32;;;3.15;;
29196;SDS011;62796;42.654;23.316;2023-07-28T09:45:59;5.50;;;3.35;;
29196;SDS011;62796;42.654;23.316;2023-07-28T09:48:28;6.82;;;3.60;;
29196;SDS011;62796;42.654;23.316;2023-07-28T09:50:56;7.20;;;3.13;;
29196;SDS011;62796;42.654;23.316;2023-07-28T09:53:24;7.90;;;3.55;;
29196;SDS011;62796;42.654;23.316;2023-07-28T09:55:52;5.63;;;3.20;;
29196;SDS011;62796;42.654;23.316;2023-07-28T09:58:18;7.85;;;3.03;;
29196;SDS011;62796;42.654;23.316;2023-07-28T10:00:49;9.07;;;3.20;;
29196;SDS011;62796;42.654;23.316;2023-07-28T10:03:16;5.20;;;3.10;;
29196;SDS011;62796;42.654;23.316;2023-07-28T10:05:41;5.90;;;3.10;;
29196;SDS011;62796;42.654;23.316;2023-07-28T10:08:07;8.75;;;3.60;;
29196;SDS011;62796;42.654;23.316;2023-07-28T10:10:34;6.60;;;3.25;;
29196;SDS011;62796;42.654;23.316;2023-07-28T10:13:00;18.25;;;5.35;;
29196;SDS011;62796;42.654;23.316;2023-07-28T10:15:30;12.13;;;3.83;;
29196;SDS011;62796;42.654;23.316;2023-07-28T10:17:57;13.05;;;4.03;;
29196;SDS011;62796;42.654;23.316;2023-07-28T10:23:12;6.80;;;3.22;;
29196;SDS011;62796;42.654;23.316;2023-07-28T10:25:43;6.30;;;3.50;;
29196;SDS011;62796;42.654;23.316;2023-07-28T10:31:11;9.15;;;3.80;;
29196;SDS011;62796;42.654;23.316;2023-07-28T10:38:46;5.97;;;3.53;;
29196;SDS011;62796;42.654;23.316;2023-07-28T10:41:24;8.07;;;3.75;;
29196;SDS011;62796;42.654;23.316;2023-07-28T10:43:50;5.00;;;3.75;;
29196;SDS011;62796;42.654;23.316;2023-07-28T10:46:16;6.10;;;3.05;;
29196;SDS011;62796;42.654;23.316;2023-07-28T10:48:44;5.30;;;3.20;;
29196;SDS011;62796;42.654;23.316;2023-07-28T10:51:12;6.28;;;2.83;;
29196;SDS011;62796;42.654;23.316;2023-07-28T10:53:49;7.13;;;2.97;;
29196;SDS011;62796;42.654;23.316;2023-07-28T10:56:15;11.90;;;3.58;;
29196;SDS011;62796;42.654;23.316;2023-07-28T10:58:40;6.72;;;3.50;;
29196;SDS011;62796;42.654;23.316;2023-07-28T11:01:05;7.05;;;3.40;;
29196;SDS011;62796;42.654;23.316;2023-07-28T11:03:32;15.75;;;4.10;;
29196;SDS011;62796;42.654;23.316;2023-07-28T11:05:58;9.95;;;3.63;;
29196;SDS011;62796;42.654;23.316;2023-07-28T11:08:24;6.47;;;3.60;;
29196;SDS011;62796;42.654;23.316;2023-07-28T11:10:50;7.65;;;3.35;;
29196;SDS011;62796;42.654;23.316;2023-07-28T11:13:15;12.18;;;3.28;;
29196;SDS011;62796;42.654;23.316;2023-07-28T11:15:41;6.72;;;3.33;;
29196;SDS011;62796;42.654;23.316;2023-07-28T11:18:06;8.32;;;3.15;;
29196;SDS011;62796;42.654;23.316;2023-07-28T11:20:32;7.20;;;2.95;;
29196;SDS011;62796;42.654;23.316;2023-07-28T11:22:58;6.95;;;3.10;;
29196;SDS011;62796;42.654;23.316;2023-07-28T11:25:26;6.65;;;3.38;;
29196;SDS011;62796;42.654;23.316;2023-07-28T11:27:53;8.10;;;3.15;;
29196;SDS011;62796;42.654;23.316;2023-07-28T11:30:20;3.33;;;2.88;;
29196;SDS011;62796;42.654;23.316;2023-07-28T11:32:48;6.47;;;3.00;;
29196;SDS011;62796;42.654;23.316;2023-07-28T11:35:16;5.65;;;2.92;;
29196;SDS011;62796;42.654;23.316;2023-07-28T11:37:48;39.60;;;4.93;;
29196;SDS011;62796;42.654;23.316;2023-07-28T11:40:16;6.53;;;3.08;;
29196;SDS011;62796;42.654;23.316;2023-07-28T11:42:50;6.32;;;3.58;;
29196;SDS011;62796;42.654;23.316;2023-07-28T11:45:18;7.70;;;3.05;;
29196;SDS011;62796;42.654;23.316;2023-07-28T11:50:28;8.32;;;2.92;;
29196;SDS011;62796;42.654;23.316;2023-07-28T11:52:55;5.72;;;2.60;;
29196;SDS011;62796;42.654;23.316;2023-07-28T11:55:22;8.60;;;2.90;;
29196;SDS011;62796;42.654;23.316;2023-07-28T11:57:48;9.88;;;3.30;;
29196;SDS011;62796;42.654;23.316;2023-07-28T12:00:14;8.60;;;2.75;;
29196;SDS011;62796;42.654;23.316;2023-07-28T12:02:43;5.57;;;3.15;;
29196;SDS011;62796;42.654;23.316;2023-07-28T12:05:16;9.57;;;2.63;;
29196;SDS011;62796;42.654;23.316;2023-07-28T12:07:52;9.52;;;3.67;;
29196;SDS011;62796;42.654;23.316;2023-07-28T12:10:17;8.57;;;2.95;;
29196;SDS011;62796;42.654;23.316;2023-07-28T12:12:44;6.97;;;3.30;;
29196;SDS011;62796;42.654;23.316;2023-07-28T12:15:21;8.35;;;3.03;;
29196;SDS011;62796;42.654;23.316;2023-07-28T12:20:54;4.60;;;2.70;;
29196;SDS011;62796;42.654;23.316;2023-07-28T12:23:20;6.63;;;2.55;;
29196;SDS011;62796;42.654;23.316;2023-07-28T12:25:47;5.22;;;2.85;;
29196;SDS011;62796;42.654;23.316;2023-07-28T12:28:13;6.88;;;2.80;;
29196;SDS011;62796;42.654;23.316;2023-07-28T12:30:39;5.82;;;3.00;;
29196;SDS011;62796;42.654;23.316;2023-07-28T12:33:04;4.32;;;2.65;;
29196;SDS011;62796;42.654;23.316;2023-07-28T12:35:31;4.10;;;2.80;;
29196;SDS011;62796;42.654;23.316;2023-07-28T12:37:59;7.60;;;3.45;;
29196;SDS011;62796;42.654;23.316;2023-07-28T12:40:26;4.57;;;2.50;;
29196;SDS011;62796;42.654;23.316;2023-07-28T12:42:54;7.72;;;3.20;;
29196;SDS011;62796;42.654;23.316;2023-07-28T12:45:20;8.48;;;3.10;;
29196;SDS011;62796;42.654;23.316;2023-07-28T12:47:46;7.18;;;2.70;;
29196;SDS011;62796;42.654;23.316;2023-07-28T12:50:12;11.57;;;2.80;;
29196;SDS011;62796;42.654;23.316;2023-07-28T12:52:37;3.65;;;2.60;;
29196;SDS011;62796;42.654;23.316;2023-07-28T12:55:03;6.47;;;2.75;;
29196;SDS011;62796;42.654;23.316;2023-07-28T12:57:28;5.47;;;2.70;;
29196;SDS011;62796;42.654;23.316;2023-07-28T12:59:54;3.90;;;2.58;;
29196;SDS011;62796;42.654;23.316;2023-07-28T13:02:19;7.97;;;2.60;;
29196;SDS011;62796;42.654;23.316;2023-07-28T13:04:45;3.60;;;2.53;;
29196;SDS011;62796;42.654;23.316;2023-07-28T13:07:10;4.80;;;3.05;;
29196;SDS011;62796;42.654;23.316;2023-07-28T13:09:35;8.80;;;3.08;;
29196;SDS011;62796;42.654;23.316;2023-07-28T13:12:01;5.05;;;2.72;;
29196;SDS011;62796;42.654;23.316;2023-07-28T13:14:26;7.53;;;2.90;;
29196;SDS011;62796;42.654;23.316;2023-07-28T13:16:52;6.32;;;2.83;;
29196;SDS011;62796;42.654;23.316;2023-07-28T13:19:17;4.47;;;2.40;;
29196;SDS011;62796;42.654;23.316;2023-07-28T13:21:44;4.05;;;2.38;;
29196;SDS011;62796;42.654;23.316;2023-07-28T13:24:09;9.10;;;3.67;;
29196;SDS011;62796;42.654;23.316;2023-07-28T13:26:34;4.47;;;2.70;;
29196;SDS011;62796;42.654;23.316;2023-07-28T13:29:00;7.70;;;2.70;;
29196;SDS011;62796;42.654;23.316;2023-07-28T13:31:27;4.65;;;2.35;;
29196;SDS011;62796;42.654;23.316;2023-07-28T13:33:53;7.25;;;2.50;;
29196;SDS011;62796;42.654;23.316;2023-07-28T13:36:18;10.75;;;3.10;;
29196;SDS011;62796;42.654;23.316;2023-07-28T13:38:44;5.97;;;2.70;;
29196;SDS011;62796;42.654;23.316;2023-07-28T13:41:11;5.38;;;3.15;;
29196;SDS011;62796;42.654;23.316;2023-07-28T13:43:36;5.75;;;2.60;;
29196;SDS011;62796;42.654;23.316;2023-07-28T13:46:05;9.68;;;2.78;;
29196;SDS011;62796;42.654;23.316;2023-07-28T13:48:31;10.52;;;2.60;;
29196;SDS011;62796;42.654;23.316;2023-07-28T13:50:57;6.18;;;2.80;;
29196;SDS011;62796;42.654;23.316;2023-07-28T13:53:23;3.35;;;2.40;;
29196;SDS011;62796;42.654;23.316;2023-07-28T13:55:49;5.35;;;3.00;;
29196;SDS011;62796;42.654;23.316;2023-07-28T13:58:15;5.03;;;2.70;;
29196;SDS011;62796;42.654;23.316;2023-07-28T14:00:41;6.53;;;3.25;;
29196;SDS011;62796;42.654;23.316;2023-07-28T14:03:06;7.22;;;2.63;;
29196;SDS011;62796;42.654;23.316;2023-07-28T14:05:32;2.60;;;2.30;;
29196;SDS011;62796;42.654;23.316;2023-07-28T14:07:57;2.97;;;2.63;;
29196;SDS011;62796;42.654;23.316;2023-07-28T14:10:23;5.68;;;2.75;;
29196;SDS011;62796;42.654;23.316;2023-07-28T14:12:49;4.05;;;3.03;;
29196;SDS011;62796;42.654;23.316;2023-07-28T14:15:14;4.60;;;2.75;;
29196;SDS011;62796;42.654;23.316;2023-07-28T14:17:40;4.43;;;2.80;;
29196;SDS011;62796;42.654;23.316;2023-07-28T14:20:05;4.68;;;2.92;;
29196;SDS011;62796;42.654;23.316;2023-07-28T14:22:31;7.60;;;3.03;;
29196;SDS011;62796;42.654;23.316;2023-07-28T14:24:57;5.18;;;3.50;;
29196;SDS011;62796;42.654;23.316;2023-07-28T14:27:22;5.75;;;3.65;;
29196;SDS011;62796;42.654;23.316;2023-07-28T14:29:47;4.57;;;3.00;;
29196;SDS011;62796;42.654;23.316;2023-07-28T14:32:13;6.75;;;2.95;;
29196;SDS011;62796;42.654;23.316;2023-07-28T14:34:38;3.95;;;2.65;;
29196;SDS011;62796;42.654;23.316;2023-07-28T14:37:04;3.92;;;2.80;;
29196;SDS011;62796;42.654;23.316;2023-07-28T14:39:33;5.72;;;2.65;;
29196;SDS011;62796;42.654;23.316;2023-07-28T14:41:59;3.13;;;2.83;;
29196;SDS011;62796;42.654;23.316;2023-07-28T14:44:24;5.70;;;3.05;;
29196;SDS011;62796;42.654;23.316;2023-07-28T14:46:50;4.53;;;3.40;;